Time;durP1;ratioP1;P1;durP2;ratioP2;P2;SDS_P1;SDS_P2;PMS_P1;PMS_P2;Temp;Humidity;BMP_temperature;BMP_pressure;BME280_temperature;BME280_humidity;BME280_pressure;Samples;Min_cycle;Max_cycle;Signal;HPM_P1;HPM_P2
2023/03/29 00:02:32;;;;;;;0.60;0.60;;;;;;;4.18;80.93;98311.22;4851079;29;19927;-93
2023/03/29 00:05:03;;;;;;;0.80;0.80;;;;;;;4.08;81.01;98288.50;4834794;29;20064;-94
2023/03/29 00:07:34;;;;;;;0.70;0.70;;;;;;;4.01;80.89;98276.25;4865878;29;20539;-93
2023/03/29 00:10:03;;;;;;;0.60;0.60;;;;;;;4.12;81.60;98316.41;4850124;29;20053;-95
2023/03/29 00:12:31;;;;;;;0.80;0.80;;;;;;;3.90;81.49;98259.13;4849081;29;20551;-94
2023/03/29 00:14:58;;;;;;;0.80;0.80;;;;;;;4.08;81.52;98287.72;4848166;29;20097;-93
2023/03/29 00:17:26;;;;;;;0.73;0.73;;;;;;;4.02;81.52;98285.91;4863910;29;20080;-94
2023/03/29 00:19:53;;;;;;;0.70;0.70;;;;;;;4.12;81.61;98294.22;4848430;29;20061;-95
2023/03/29 00:22:20;;;;;;;0.80;0.80;;;;;;;3.96;81.52;98257.41;4864560;29;20072;-92
2023/03/29 00:24:48;;;;;;;0.60;0.60;;;;;;;4.04;81.70;98289.97;4849244;29;20146;-92
2023/03/29 00:27:15;;;;;;;0.80;0.80;;;;;;;3.98;81.78;98279.38;4888983;29;20063;-93
2023/03/29 00:29:44;;;;;;;0.70;0.70;;;;;;;3.96;81.77;98274.25;4886511;29;20147;-92
2023/03/29 00:32:12;;;;;;;0.75;0.75;;;;;;;3.94;81.76;98278.97;4941545;29;20051;-94
2023/03/29 00:34:41;;;;;;;0.75;0.75;;;;;;;3.81;82.00;98261.22;4907858;29;20114;-92
2023/03/29 00:37:08;;;;;;;0.85;0.85;;;;;;;3.92;82.08;98278.38;4941449;29;20101;-91
2023/03/29 00:39:47;;;;;;;0.70;0.70;;;;;;;3.95;82.18;98290.47;4925459;29;20063;-94
2023/03/29 00:42:20;;;;;;;0.80;0.80;;;;;;;3.76;82.42;98258.41;4942062;29;20055;-92
2023/03/29 00:45:12;;;;;;;0.60;0.60;;;;;;;3.88;82.38;98288.69;4941301;29;20142;-92
2023/03/29 00:47:51;;;;;;;0.80;0.80;;;;;;;3.85;82.47;98288.31;4927125;29;20069;-93
2023/03/29 00:50:21;;;;;;;0.70;0.70;;;;;;;3.82;82.46;98276.22;4911024;29;20058;-94
2023/03/29 00:52:54;;;;;;;0.80;0.80;;;;;;;3.65;82.62;98251.13;4927622;29;20050;-93
2023/03/29 00:55:24;;;;;;;0.70;0.70;;;;;;;3.72;82.70;98269.72;4940346;29;20059;-92
2023/03/29 00:57:54;;;;;;;0.73;0.73;;;;;;;3.67;82.72;98259.72;4893013;29;20051;-90
2023/03/29 01:00:25;;;;;;;0.80;0.80;;;;;;;3.63;82.86;98255.84;4892316;29;20580;-93
2023/03/29 01:02:54;;;;;;;0.80;0.80;;;;;;;3.65;82.96;98267.13;4956390;29;20051;-94
2023/03/29 01:05:36;;;;;;;0.80;0.80;;;;;;;3.65;82.70;98249.28;4924360;29;20055;-94
2023/03/29 01:08:10;;;;;;;0.70;0.70;;;;;;;3.77;82.82;98276.03;4923899;29;20047;-93
2023/03/29 01:11:02;;;;;;;0.90;0.90;;;;;;;3.73;82.68;98252.69;4927404;29;20403;-93
2023/03/29 01:13:43;;;;;;;0.80;0.80;;;;;;;3.65;82.79;98237.78;4924452;29;20493;-93
2023/03/29 01:16:12;;;;;;;0.70;0.70;;;;;;;3.75;82.71;98262.13;4915182;28;20061;-94
2023/03/29 01:18:40;;;;;;;0.70;0.70;;;;;;;3.74;82.61;98243.66;4928267;29;20624;-93
2023/03/29 01:21:18;;;;;;;0.70;0.70;;;;;;;3.78;82.82;98243.00;4942983;29;20043;-93
2023/03/29 01:24:09;;;;;;;0.70;0.70;;;;;;;3.71;82.50;98222.75;4924971;29;20075;-93
2023/03/29 01:26:55;;;;;;;0.70;0.70;;;;;;;3.81;82.57;98239.88;4939486;29;20051;-92
2023/03/29 01:29:31;;;;;;;0.80;0.80;;;;;;;3.81;82.44;98228.41;4939691;29;20101;-93
2023/03/29 01:32:21;;;;;;;0.70;0.70;;;;;;;3.83;82.44;98232.47;4927036;29;20043;-93
2023/03/29 01:35:31;;;;;;;0.75;0.75;;;;;;;3.83;82.32;98221.81;4930465;29;20082;-94
2023/03/29 01:38:08;;;;;;;0.80;0.80;;;;;;;3.77;82.29;98230.66;4848740;29;20088;-92
2023/03/29 01:40:38;;;;;;;0.70;0.70;;;;;;;3.78;82.16;98218.16;4821429;29;20069;-94
2023/03/29 01:43:30;;;;;;;0.80;0.80;;;;;;;3.78;82.43;98218.16;4817143;29;20552;-92
2023/03/29 01:46:03;;;;;;;0.70;0.70;;;;;;;3.82;82.21;98209.50;4847782;29;20514;-92
2023/03/29 01:48:33;;;;;;;0.80;0.80;;;;;;;3.74;82.42;98215.09;4833465;29;20054;-92
2023/03/29 01:51:08;;;;;;;0.75;0.75;;;;;;;3.65;82.34;98184.41;4811220;29;20082;-91
2023/03/29 01:53:46;;;;;;;0.90;0.90;;;;;;;3.75;82.31;98219.41;4794782;29;20068;-93
2023/03/29 01:56:19;;;;;;;0.80;0.80;;;;;;;3.66;82.57;98204.72;4823539;29;20119;-93
2023/03/29 01:58:55;;;;;;;0.85;0.85;;;;;;;3.50;82.59;98194.63;4794022;29;20115;-94
2023/03/29 02:01:24;;;;;;;0.90;0.90;;;;;;;3.56;82.80;98196.38;4810277;29;20060;-93
2023/03/29 02:03:56;;;;;;;0.80;0.80;;;;;;;3.53;83.03;98188.84;4823533;29;20074;-93
2023/03/29 02:06:25;;;;;;;0.80;0.80;;;;;;;3.56;83.00;98199.88;4810076;29;20059;-94
2023/03/29 02:08:59;;;;;;;0.80;0.80;;;;;;;3.60;83.45;98202.94;4815478;29;20049;-95
2023/03/29 02:11:28;;;;;;;0.70;0.70;;;;;;;3.63;82.99;98207.81;4851061;29;20094;-93
2023/03/29 02:13:56;;;;;;;0.80;0.80;;;;;;;3.63;83.14;98194.47;4865328;29;20044;-93
2023/03/29 02:16:25;;;;;;;0.80;0.80;;;;;;;3.60;82.98;98186.94;4881845;29;20155;-93
2023/03/29 02:18:55;;;;;;;0.90;0.90;;;;;;;3.66;82.81;98186.84;4896468;29;20053;-93
2023/03/29 02:22:15;;;;;;;0.80;0.80;;;;;;;3.77;82.91;98200.50;4863208;29;20061;-93
2023/03/29 02:24:44;;;;;;;0.80;0.80;;;;;;;3.73;82.61;98184.13;4903718;29;20123;-93
2023/03/29 02:27:11;;;;;;;0.70;0.70;;;;;;;3.69;82.50;98169.56;4904357;29;20098;-93
2023/03/29 02:29:39;;;;;;;0.75;0.75;;;;;;;3.81;82.46;98191.03;4905153;29;20128;-93
2023/03/29 02:32:14;;;;;;;0.70;0.70;;;;;;;3.69;82.54;98177.59;4918801;29;20056;-94
2023/03/29 02:34:49;;;;;;;0.80;0.80;;;;;;;3.82;82.58;98188.16;4898196;29;20143;-92
2023/03/29 02:37:17;;;;;;;;;;;;;;;3.85;82.30;98181.56;4914440;29;20052;-93
2023/03/29 02:39:47;;;;;;;0.70;0.70;;;;;;;3.63;82.20;98157.13;4898859;29;20386;-93
2023/03/29 02:42:19;;;;;;;0.70;0.70;;;;;;;3.83;82.19;98186.28;4868984;29;20070;-94
2023/03/29 02:44:49;;;;;;;0.70;0.70;;;;;;;3.72;82.13;98150.44;4929954;29;20060;-92
2023/03/29 02:47:47;;;;;;;0.80;0.80;;;;;;;3.85;82.14;98171.69;4899138;29;20495;-93
2023/03/29 02:50:15;;;;;;;0.80;0.80;;;;;;;3.63;82.09;98131.25;4916560;29;20064;-92
2023/03/29 02:52:52;;;;;;;0.73;0.73;;;;;;;3.73;82.07;98145.94;4921154;29;20052;-92
2023/03/29 02:55:21;;;;;;;0.80;0.80;;;;;;;3.81;82.11;98156.31;4921227;29;20043;-93
2023/03/29 02:57:49;;;;;;;0.80;0.80;;;;;;;3.77;82.20;98153.28;4954308;29;20064;-92
2023/03/29 03:00:18;;;;;;;0.80;0.80;;;;;;;3.79;82.03;98148.53;4941335;28;20047;-91
2023/03/29 03:02:47;;;;;;;0.70;0.70;;;;;;;3.93;81.91;98156.41;4935799;29;20582;-91
2023/03/29 03:05:16;;;;;;;0.77;0.77;;;;;;;3.93;81.71;98167.91;4938098;29;20066;-92
2023/03/29 03:08:08;;;;;;;0.80;0.80;;;;;;;3.97;81.74;98157.59;4937401;29;20099;-92
2023/03/29 03:10:38;;;;;;;0.80;0.80;;;;;;;3.91;81.78;98162.78;4953351;29;20099;-93
2023/03/29 03:13:05;;;;;;;0.70;0.70;;;;;;;3.89;81.70;98156.84;4906484;29;20059;-92
2023/03/29 03:15:36;;;;;;;0.80;0.80;;;;;;;3.86;81.48;98151.94;4927463;29;20047;-92
2023/03/29 03:18:03;;;;;;;0.70;0.70;;;;;;;3.84;81.82;98143.34;4956448;29;20062;-91
2023/03/29 03:20:32;;;;;;;0.70;0.70;;;;;;;3.83;81.78;98139.06;4940500;29;20123;-93
2023/03/29 03:23:02;;;;;;;0.80;0.80;;;;;;;3.80;81.80;98139.50;4972626;29;20055;-91
2023/03/29 03:25:30;;;;;;;0.75;0.75;;;;;;;3.83;81.68;98136.38;4927515;29;20102;-92
2023/03/29 03:28:03;;;;;;;0.63;0.63;;;;;;;3.82;81.69;98137.44;4956523;29;20051;-92
2023/03/29 03:30:32;;;;;;;0.60;0.60;;;;;;;3.85;81.84;98141.50;4939099;29;20123;-92
2023/03/29 03:33:28;;;;;;;0.70;0.70;;;;;;;3.98;81.56;98153.91;4950009;28;20146;-91
2023/03/29 03:36:05;;;;;;;0.70;0.70;;;;;;;3.97;81.37;98145.03;4955628;29;20087;-92
2023/03/29 03:38:36;;;;;;;0.75;0.75;;;;;;;4.10;81.12;98150.25;4937531;29;20052;-92
2023/03/29 03:41:07;;;;;;;0.70;0.70;;;;;;;4.06;80.85;98127.69;4940698;28;20055;-94
2023/03/29 03:43:35;;;;;;;0.70;0.70;;;;;;;4.19;80.52;98145.41;4926345;29;20051;-92
2023/03/29 03:46:02;;;;;;;0.70;0.70;;;;;;;4.21;80.62;98127.31;4907963;29;20051;-93
2023/03/29 03:48:30;;;;;;;0.80;0.80;;;;;;;4.24;80.43;98137.53;4924236;29;20047;-93
2023/03/29 03:51:04;;;;;;;;;;;;;;;4.30;80.07;98142.00;4929807;29;20052;-92
2023/03/29 03:53:34;;;;;;;0.80;0.80;;;;;;;4.28;79.72;98132.56;4941838;29;20441;-92
2023/03/29 03:56:09;;;;;;;0.80;0.80;;;;;;;4.32;79.85;98129.22;4934062;29;20102;-93
2023/03/29 03:58:57;;;;;;;0.70;0.70;;;;;;;4.43;79.33;98141.00;4927334;29;20055;-93
2023/03/29 04:01:26;;;;;;;0.80;0.80;;;;;;;4.41;79.06;98134.28;4908370;29;20126;-92
2023/03/29 04:04:18;;;;;;;0.80;0.80;;;;;;;4.46;79.02;98126.38;4937997;29;20194;-89
2023/03/29 04:07:05;;;;;;;0.80;0.80;;;;;;;4.51;78.92;98115.84;4863283;29;20055;-93
2023/03/29 04:09:39;;;;;;;0.80;0.80;;;;;;;4.62;78.52;98124.94;4870071;29;20055;-94
2023/03/29 04:12:45;;;;;;;0.80;0.80;;;;;;;4.61;78.34;98102.75;4850142;29;20057;-91
2023/03/29 04:15:16;;;;;;;0.80;0.80;;;;;;;4.65;78.08;98095.88;4828069;29;20492;-90
2023/03/29 04:17:52;;;;;;;0.70;0.70;;;;;;;4.70;77.82;98098.69;4838996;29;20062;-96
2023/03/29 04:20:29;;;;;;;0.80;0.80;;;;;;;4.79;77.77;98120.56;4817831;29;20054;-92
2023/03/29 04:22:59;;;;;;;0.73;0.73;;;;;;;4.74;77.44;98104.41;4842082;29;20129;-90
2023/03/29 04:25:28;;;;;;;0.70;0.70;;;;;;;4.86;77.30;98120.44;4497379;29;10000138;-90
2023/03/29 04:28:14;;;;;;;0.65;0.65;;;;;;;4.91;76.96;98115.22;4856885;29;21032;-91
2023/03/29 04:30:48;;;;;;;0.73;0.73;;;;;;;4.87;76.72;98106.06;4849164;29;20061;-92
2023/03/29 04:33:28;;;;;;;0.70;0.70;;;;;;;4.95;76.63;98121.75;4826951;29;20057;-87
2023/03/29 04:35:58;;;;;;;0.80;0.80;;;;;;;4.98;76.40;98111.41;4827064;29;20049;-87
2023/03/29 04:38:26;;;;;;;0.90;0.90;;;;;;;4.86;75.93;98094.56;4863867;29;20067;-93
2023/03/29 04:40:59;;;;;;;0.80;0.80;;;;;;;5.06;75.92;98104.91;4852000;29;20053;-87
2023/03/29 04:43:48;;;;;;;0.80;0.80;;;;;;;4.94;75.90;98082.72;4896161;29;20076;-89
2023/03/29 04:46:29;;;;;;;0.80;0.80;;;;;;;5.12;75.81;98095.97;4899978;29;20098;-89
2023/03/29 04:49:02;;;;;;;0.85;0.85;;;;;;;5.26;75.28;98109.94;4936137;29;20054;-89
2023/03/29 04:51:34;;;;;;;0.80;0.80;;;;;;;5.33;74.92;98117.84;4907995;29;20106;-91
2023/03/29 04:54:01;;;;;;;0.80;0.80;;;;;;;5.30;74.75;98087.03;4902389;29;20059;-89
2023/03/29 04:56:31;;;;;;;0.70;0.70;;;;;;;5.31;74.64;98101.22;4905199;29;20090;-90
2023/03/29 04:59:21;;;;;;;0.70;0.70;;;;;;;5.42;74.47;98111.13;4871642;29;20089;-91
2023/03/29 05:01:50;;;;;;;0.80;0.80;;;;;;;5.45;74.32;98109.84;4880519;29;20060;-92
2023/03/29 05:04:20;;;;;;;0.70;0.70;;;;;;;5.38;74.13;98080.50;4841421;29;20151;-95
2023/03/29 05:07:36;;;;;;;0.77;0.77;;;;;;;5.51;74.08;98098.19;4869641;29;20061;-92
2023/03/29 05:10:04;;;;;;;0.80;0.80;;;;;;;5.42;73.96;98097.75;4830813;29;20411;-94
2023/03/29 05:12:33;;;;;;;0.80;0.80;;;;;;;5.32;73.69;98081.44;4879955;29;20056;-95
2023/03/29 05:15:09;;;;;;;0.70;0.70;;;;;;;5.42;73.75;98090.50;4835095;29;20068;-94
2023/03/29 05:18:32;;;;;;;0.70;0.70;;;;;;;5.52;73.98;98094.44;4809882;29;20278;-93
2023/03/29 05:24:38;;;;;;;0.70;0.70;;;;;;;5.34;73.54;98085.53;4779825;29;20066;-91
2023/03/29 05:31:11;;;;;;;0.75;0.75;;;;;;;5.86;72.12;98103.50;5093485;23;20067;-94
2023/03/29 05:33:50;;;;;;;0.60;0.60;;;;;;;5.85;71.74;98075.09;4912837;29;20120;-94
2023/03/29 05:40:05;;;;;;;0.70;0.70;;;;;;;5.86;71.92;98084.75;4917377;29;20065;-94
2023/03/29 05:42:51;;;;;;;0.80;0.80;;;;;;;5.84;71.79;98076.13;4860541;29;20049;-93
2023/03/29 05:45:57;;;;;;;0.70;0.70;;;;;;;6.08;71.78;98099.16;4865238;29;20053;-95
2023/03/29 05:48:31;;;;;;;0.70;0.70;;;;;;;6.01;71.70;98074.38;4869800;29;20048;-93
2023/03/29 05:50:59;;;;;;;0.70;0.70;;;;;;;6.06;71.29;98103.13;4873243;29;20056;-94
2023/03/29 05:53:38;;;;;;;0.70;0.70;;;;;;;6.10;70.82;98088.19;4864130;29;20044;-95
2023/03/29 05:56:21;;;;;;;0.70;0.70;;;;;;;6.05;70.69;98077.38;4856631;29;20064;-94
2023/03/29 05:59:32;;;;;;;0.70;0.70;;;;;;;6.32;70.69;98092.91;4825077;29;20050;-94
2023/03/29 06:02:09;;;;;;;0.70;0.70;;;;;;;6.27;70.50;98080.22;4820422;29;20061;-94
2023/03/29 06:04:56;;;;;;;0.90;0.90;;;;;;;6.25;69.92;98071.59;4761577;30;20051;-95
2023/03/29 06:08:27;;;;;;;0.80;0.80;;;;;;;6.48;69.82;98094.81;4759544;30;20055;-94
2023/03/29 06:11:40;;;;;;;0.70;0.70;;;;;;;6.36;69.26;98078.81;4756582;30;20040;-95
2023/03/29 06:14:41;;;;;;;0.70;0.70;;;;;;;6.31;69.67;98073.34;4765929;30;20060;-94
2023/03/29 06:17:29;;;;;;;0.70;0.70;;;;;;;6.33;69.62;98076.59;4725412;30;20063;-93
2023/03/29 06:19:58;;;;;;;0.70;0.70;;;;;;;6.46;69.47;98099.63;4749807;30;20067;-95
2023/03/29 06:22:49;;;;;;;0.70;0.70;;;;;;;6.32;69.47;98083.00;4738467;30;20116;-94
2023/03/29 06:25:18;;;;;;;0.70;0.70;;;;;;;6.43;69.32;98113.47;4805041;29;20061;-94
2023/03/29 06:28:17;;;;;;;0.70;0.70;;;;;;;6.51;69.34;98087.13;4815995;29;20049;-94
2023/03/29 06:31:13;;;;;;;0.70;0.70;;;;;;;6.27;69.29;98058.78;4787644;29;20050;-94
2023/03/29 06:33:45;;;;;;;0.80;0.80;;;;;;;6.38;68.91;98075.88;4791817;30;20060;-95
2023/03/29 06:37:22;;;;;;;0.70;0.70;;;;;;;6.50;69.12;98082.78;4782322;30;20055;-94
2023/03/29 06:40:29;;;;;;;0.80;0.80;;;;;;;6.49;69.53;98083.06;4774518;30;20063;-96
2023/03/29 06:42:58;;;;;;;0.70;0.70;;;;;;;6.38;69.66;98071.34;4805669;29;20092;-95
2023/03/29 06:45:39;;;;;;;0.70;0.70;;;;;;;6.24;69.92;98053.91;4823464;29;20093;-92
2023/03/29 06:48:35;;;;;;;0.63;0.63;;;;;;;6.31;70.08;98059.94;4808298;29;20545;-94
2023/03/29 06:51:09;;;;;;;0.80;0.80;;;;;;;6.19;70.48;98062.66;4813610;29;20058;-93
2023/03/29 06:53:51;;;;;;;0.70;0.70;;;;;;;6.18;71.49;98077.13;4817984;29;20110;-93
2023/03/29 06:56:21;;;;;;;0.70;0.70;;;;;;;6.15;71.97;98084.81;4810856;29;20054;-93
2023/03/29 06:59:08;;;;;;;0.70;0.70;;;;;;;6.08;72.79;98087.66;4858087;29;20136;-91
2023/03/29 07:01:55;;;;;;;0.73;0.73;;;;;;;6.00;73.77;98080.81;4828991;29;20050;-94
2023/03/29 07:04:43;;;;;;;0.70;0.70;;;;;;;5.93;73.99;98079.28;4845544;29;20073;-93
2023/03/29 07:07:32;;;;;;;0.70;0.70;;;;;;;6.00;74.28;98078.13;4838293;29;20054;-96
2023/03/29 07:10:43;;;;;;;0.73;0.73;;;;;;;6.07;74.01;98086.81;4827755;29;20053;-93
2023/03/29 07:13:41;;;;;;;0.70;0.70;;;;;;;6.24;74.14;98094.09;4834383;29;20053;-91
2023/03/29 07:16:16;;;;;;;0.70;0.70;;;;;;;6.24;73.69;98086.06;4818781;29;20058;-93
2023/03/29 07:19:09;;;;;;;0.70;0.70;;;;;;;5.99;74.24;98076.47;4871327;29;20056;-92
2023/03/29 07:21:59;;;;;;;0.80;0.80;;;;;;;5.83;75.55;98083.34;4900934;29;20083;-92
2023/03/29 07:24:48;;;;;;;0.80;0.80;;;;;;;5.80;76.60;98083.84;4850192;29;20073;-93
2023/03/29 07:27:19;;;;;;;;;;;;;;;5.82;77.06;98088.94;4866626;29;20421;-94
2023/03/29 07:29:51;;;;;;;0.70;0.70;;;;;;;5.60;78.38;98076.19;4870221;29;19934;-94
2023/03/29 07:32:21;;;;;;;0.73;0.73;;;;;;;5.54;79.25;98082.47;4884325;29;20054;-95
2023/03/29 07:35:16;;;;;;;0.80;0.80;;;;;;;5.46;79.42;98082.00;4856778;29;20093;-91
2023/03/29 07:37:50;;;;;;;0.80;0.80;;;;;;;5.52;80.25;98106.00;4851443;29;20053;-93
2023/03/29 07:40:26;;;;;;;0.75;0.75;;;;;;;5.54;80.32;98092.34;4837277;29;20053;-92
2023/03/29 07:42:57;;;;;;;0.80;0.80;;;;;;;5.65;80.24;98091.53;4879831;29;20195;-92
2023/03/29 07:45:30;;;;;;;;;;;;;;;5.85;80.07;98099.19;4853450;29;20113;-92
2023/03/29 07:48:08;;;;;;;0.80;0.80;;;;;;;5.68;80.27;98076.88;4872395;29;19931;-93
2023/03/29 07:50:47;;;;;;;0.73;0.73;;;;;;;5.57;79.99;98074.00;4866401;29;20049;-92
2023/03/29 07:53:19;;;;;;;0.70;0.70;;;;;;;5.77;79.76;98107.56;4853197;29;20067;-94
2023/03/29 07:55:48;;;;;;;0.70;0.70;;;;;;;5.68;80.09;98095.63;4870210;29;20113;-91
2023/03/29 07:58:46;;;;;;;0.70;0.70;;;;;;;5.87;80.00;98113.16;4880990;29;20048;-92
2023/03/29 08:01:19;;;;;;;0.70;0.70;;;;;;;5.86;79.26;98085.56;4886470;29;20562;-92
2023/03/29 08:04:11;;;;;;;0.70;0.70;;;;;;;6.04;78.84;98091.84;4892677;29;20052;-92
2023/03/29 08:06:58;;;;;;;0.80;0.80;;;;;;;6.10;78.50;98095.44;4888951;29;20037;-91
2023/03/29 08:09:39;;;;;;;0.80;0.80;;;;;;;6.19;77.67;98088.66;4887370;29;20108;-91
2023/03/29 08:12:10;;;;;;;0.70;0.70;;;;;;;6.40;77.09;98071.09;4875163;29;20052;-91
2023/03/29 08:14:39;;;;;;;0.80;0.80;;;;;;;6.54;76.03;98079.66;4858280;29;20049;-91
2023/03/29 08:17:16;;;;;;;0.70;0.70;;;;;;;6.61;75.87;98070.41;4844967;29;20476;-91
2023/03/29 08:19:48;;;;;;;0.80;0.80;;;;;;;6.63;75.62;98056.75;4851313;29;20612;-91
2023/03/29 08:22:23;;;;;;;0.80;0.80;;;;;;;6.71;75.39;98057.19;4834326;29;20053;-91
2023/03/29 08:25:06;;;;;;;0.80;0.80;;;;;;;6.84;74.61;98056.03;4835636;29;20054;-92
2023/03/29 08:27:41;;;;;;;0.70;0.70;;;;;;;6.83;74.92;98046.34;4848761;29;20049;-93
2023/03/29 08:30:18;;;;;;;0.70;0.70;;;;;;;6.81;74.37;98053.03;4835853;29;20053;-91
2023/03/29 08:32:50;;;;;;;0.75;0.75;;;;;;;6.71;75.06;98062.53;4882023;29;20041;-93
2023/03/29 08:35:28;;;;;;;0.70;0.70;;;;;;;6.65;75.59;98051.97;4882941;29;20049;-94
2023/03/29 08:38:41;;;;;;;0.70;0.70;;;;;;;6.75;76.22;98078.13;4849335;29;20045;-92
2023/03/29 08:41:26;;;;;;;0.70;0.70;;;;;;;6.56;77.10;98072.16;4859579;29;20112;-91
2023/03/29 08:44:06;;;;;;;0.80;0.80;;;;;;;6.65;77.71;98084.13;4893465;29;20069;-92
2023/03/29 08:46:57;;;;;;;0.80;0.80;;;;;;;6.62;77.90;98073.91;4910667;29;20053;-91
2023/03/29 08:49:42;;;;;;;0.80;0.80;;;;;;;6.50;78.61;98056.00;4879035;29;20052;-90
2023/03/29 08:52:35;;;;;;;0.80;0.80;;;;;;;6.51;79.19;98059.50;4907340;29;20093;-92
2023/03/29 08:55:30;;;;;;;0.80;0.80;;;;;;;6.64;80.32;98063.75;4876252;29;20082;-94
2023/03/29 08:58:30;;;;;;;0.80;0.80;;;;;;;6.54;80.24;98037.56;4880730;29;20174;-91
2023/03/29 09:01:03;;;;;;;0.70;0.70;;;;;;;6.67;80.66;98061.38;4890661;29;20147;-91
2023/03/29 09:04:02;;;;;;;0.70;0.70;;;;;;;6.79;80.99;98079.28;4889878;29;20047;-92
2023/03/29 09:06:54;;;;;;;0.70;0.70;;;;;;;6.70;81.17;98074.31;4901587;29;20048;-92
2023/03/29 09:09:31;;;;;;;0.80;0.80;;;;;;;6.58;81.46;98027.16;4873969;29;20087;-92
2023/03/29 09:12:25;;;;;;;0.70;0.70;;;;;;;6.74;81.89;98069.28;4889292;29;20292;-93
2023/03/29 09:15:18;;;;;;;0.80;0.80;;;;;;;6.47;82.80;98047.63;4896766;29;20048;-92
2023/03/29 09:18:23;;;;;;;0.80;0.80;;;;;;;6.41;83.23;98073.53;4885081;29;20062;-93
2023/03/29 09:20:59;;;;;;;0.70;0.70;;;;;;;6.28;83.90;98058.56;4898451;29;20052;-92
2023/03/29 09:24:08;;;;;;;0.70;0.70;;;;;;;6.29;85.06;98054.00;4916413;29;20058;-95
2023/03/29 09:26:56;;;;;;;0.80;0.80;;;;;;;5.98;85.30;98050.75;4891304;29;20052;-89
2023/03/29 09:29:48;;;;;;;0.70;0.70;;;;;;;6.17;85.87;98070.13;4899281;29;20163;-92
2023/03/29 09:33:03;;;;;;;0.68;0.68;;;;;;;6.00;86.63;98059.38;4908099;29;20044;-95
2023/03/29 09:36:24;;;;;;;0.70;0.70;;;;;;;6.00;87.47;98059.38;4868002;29;20074;-92
2023/03/29 09:39:06;;;;;;;0.70;0.70;;;;;;;6.07;88.19;98081.44;4903080;29;20183;-89
2023/03/29 09:41:40;;;;;;;0.70;0.70;;;;;;;6.08;88.68;98076.94;4555979;29;10000575;-90
2023/03/29 09:44:12;;;;;;;0.80;0.80;;;;;;;6.03;88.82;98050.84;4879037;29;20120;-88
2023/03/29 09:47:06;;;;;;;0.80;0.80;;;;;;;6.20;89.11;98069.66;4885941;29;20068;-90
2023/03/29 09:49:42;;;;;;;0.80;0.80;;;;;;;6.18;89.26;98058.38;4882394;29;20064;-89
2023/03/29 09:52:12;;;;;;;0.80;0.80;;;;;;;6.26;89.13;98062.53;4903895;29;20040;-90
2023/03/29 09:54:48;;;;;;;0.90;0.90;;;;;;;6.40;89.47;98079.13;4907069;29;20088;-93
2023/03/29 09:57:45;;;;;;;0.60;0.60;;;;;;;6.16;89.38;98047.06;4893183;29;20721;-90
2023/03/29 10:00:15;;;;;;;0.70;0.70;;;;;;;6.18;89.90;98050.34;4885618;29;20535;-91
2023/03/29 10:02:56;;;;;;;0.90;0.90;;;;;;;6.23;90.09;98063.81;4897890;29;20156;-89
2023/03/29 10:05:36;;;;;;;0.80;0.80;;;;;;;6.14;90.65;98064.44;4915891;29;20498;-90
2023/03/29 10:08:39;;;;;;;0.70;0.70;;;;;;;6.22;90.89;98062.19;4875701;29;20159;-90
2023/03/29 10:11:22;;;;;;;0.82;0.82;;;;;;;6.24;90.53;98070.81;4872182;29;20128;-89
2023/03/29 10:13:56;;;;;;;0.70;0.70;;;;;;;6.31;91.09;98065.31;4931186;29;20091;-89
2023/03/29 10:16:27;;;;;;;0.80;0.80;;;;;;;6.25;91.19;98063.56;4944822;29;20062;-90
2023/03/29 10:18:55;;;;;;;0.80;0.80;;;;;;;6.16;91.61;98044.41;4942825;29;20094;-91
2023/03/29 10:21:23;;;;;;;0.80;0.80;;;;;;;6.24;91.86;98045.88;4868640;29;20055;-89
2023/03/29 10:23:57;;;;;;;0.70;0.70;;;;;;;6.10;92.04;98039.97;4898820;29;20457;-89
2023/03/29 10:26:31;;;;;;;0.77;0.77;;;;;;;5.92;92.12;98046.31;4899750;29;20047;-90
2023/03/29 10:29:00;;;;;;;0.80;0.80;;;;;;;5.99;92.52;98047.00;4891773;29;20487;-91
2023/03/29 10:31:32;;;;;;;0.70;0.70;;;;;;;5.99;92.86;98049.69;4894888;29;20066;-89
2023/03/29 10:34:02;;;;;;;0.80;0.80;;;;;;;5.96;93.02;98044.00;4890834;29;20139;-89
2023/03/29 10:36:30;;;;;;;0.70;0.70;;;;;;;6.07;93.34;98049.31;4880114;29;20139;-90
2023/03/29 10:38:59;;;;;;;0.60;0.60;;;;;;;6.05;93.08;98046.06;4883700;29;20155;-88
2023/03/29 10:41:33;;;;;;;0.70;0.70;;;;;;;6.15;93.46;98047.31;4897656;29;20052;-90
2023/03/29 10:44:00;;;;;;;0.60;0.60;;;;;;;6.06;93.44;98015.53;4897022;29;20096;-89
2023/03/29 10:46:30;;;;;;;0.70;0.70;;;;;;;5.99;93.47;98020.22;4849030;29;20060;-92
2023/03/29 10:49:04;;;;;;;0.80;0.80;;;;;;;6.10;93.78;98031.94;4880021;29;20061;-90
2023/03/29 10:51:33;;;;;;;0.80;0.80;;;;;;;6.05;93.80;98030.00;4885025;29;20515;-91
2023/03/29 10:54:08;;;;;;;0.80;0.80;;;;;;;6.02;94.43;98026.97;4928643;29;20149;-91
2023/03/29 10:56:56;;;;;;;0.70;0.70;;;;;;;6.04;94.63;98039.06;4950792;29;20051;-90
2023/03/29 10:59:45;;;;;;;0.70;0.70;;;;;;;6.10;95.00;98045.34;4953198;29;20050;-91
2023/03/29 11:02:12;;;;;;;0.70;0.70;;;;;;;6.08;95.33;98045.59;4935457;29;20054;-90
2023/03/29 11:04:46;;;;;;;0.80;0.80;;;;;;;6.08;95.85;98052.81;4952159;29;20178;-91
2023/03/29 11:07:22;;;;;;;0.70;0.70;;;;;;;6.12;96.24;98047.78;4919287;29;20047;-90
2023/03/29 11:10:09;;;;;;;0.80;0.80;;;;;;;6.13;96.26;98062.78;4952158;29;20062;-90
2023/03/29 11:12:41;;;;;;;0.70;0.70;;;;;;;6.12;96.39;98056.63;4950095;29;20754;-92
2023/03/29 11:15:32;;;;;;;0.70;0.70;;;;;;;6.08;97.18;98056.31;4922174;29;20098;-95
2023/03/29 11:18:13;;;;;;;0.70;0.70;;;;;;;6.10;97.30;98060.59;4913558;29;20514;-88
2023/03/29 11:21:10;;;;;;;0.70;0.70;;;;;;;6.07;97.62;98069.94;4954041;29;20114;-89
2023/03/29 11:23:46;;;;;;;0.70;0.70;;;;;;;6.04;97.94;98071.22;4880991;29;20052;-87
2023/03/29 11:26:28;;;;;;;0.70;0.70;;;;;;;6.01;98.38;98055.63;4919320;29;20051;-88
2023/03/29 11:29:08;;;;;;;0.70;0.70;;;;;;;5.91;98.36;98057.28;4899471;29;20064;-91
2023/03/29 11:31:59;;;;;;;0.70;0.70;;;;;;;6.00;98.94;98048.66;4891719;29;20064;-91
2023/03/29 11:35:05;;;;;;;0.80;0.80;;;;;;;6.02;99.07;98051.88;4929139;29;20115;-92
2023/03/29 11:37:51;;;;;;;0.70;0.70;;;;;;;6.06;99.09;98063.75;4917780;29;20143;-91
2023/03/29 11:41:09;;;;;;;0.80;0.80;;;;;;;6.06;99.20;98061.09;4884788;29;20155;-90
2023/03/29 11:43:41;;;;;;;0.73;0.73;;;;;;;6.01;99.23;98065.53;4867021;29;20071;-91
2023/03/29 11:46:16;;;;;;;0.75;0.75;;;;;;;6.02;99.68;98061.78;4886088;29;20060;-90
2023/03/29 11:48:55;;;;;;;0.70;0.70;;;;;;;6.00;99.86;98045.13;4895645;29;20044;-92
2023/03/29 11:51:29;;;;;;;0.70;0.70;;;;;;;5.99;100.00;98060.41;4898110;29;20052;-91
2023/03/29 11:54:20;;;;;;;0.75;0.75;;;;;;;5.94;99.86;98033.53;4899859;29;20048;-90
2023/03/29 11:57:13;;;;;;;0.70;0.70;;;;;;;6.02;99.69;98051.88;4899078;29;20062;-89
2023/03/29 11:59:47;;;;;;;0.70;0.70;;;;;;;6.12;99.49;98072.69;4868839;29;20104;-89
2023/03/29 12:02:30;;;;;;;0.80;0.80;;;;;;;5.97;99.58;98065.19;4948184;29;20063;-87
2023/03/29 12:05:01;;;;;;;0.70;0.70;;;;;;;6.06;99.51;98074.47;4939057;29;20059;-90
2023/03/29 12:07:35;;;;;;;0.70;0.70;;;;;;;6.02;99.49;98080.53;4943288;29;20054;-90
2023/03/29 12:10:13;;;;;;;0.70;0.70;;;;;;;6.01;99.69;98073.56;4946550;29;20126;-88
2023/03/29 12:12:55;;;;;;;0.70;0.70;;;;;;;5.91;99.81;98067.97;4949535;29;20065;-89
2023/03/29 12:15:25;;;;;;;0.80;0.80;;;;;;;5.94;100.00;98065.66;4928532;29;20055;-88
2023/03/29 12:18:19;;;;;;;0.80;0.80;;;;;;;6.00;100.00;98070.09;4938302;29;20513;-92
2023/03/29 12:20:53;;;;;;;0.80;0.80;;;;;;;5.86;100.00;98069.50;4924129;29;20059;-89
2023/03/29 12:23:28;;;;;;;0.70;0.70;;;;;;;5.87;100.00;98067.63;4909228;29;20052;-91
2023/03/29 12:26:26;;;;;;;0.80;0.80;;;;;;;5.84;100.00;98070.78;4908034;29;20056;-92
2023/03/29 12:29:31;;;;;;;0.70;0.70;;;;;;;6.01;100.00;98081.59;4925284;29;20069;-90
2023/03/29 12:32:00;;;;;;;0.70;0.70;;;;;;;6.02;100.00;98089.38;4955360;29;20142;-91
2023/03/29 12:35:01;;;;;;;0.80;0.80;;;;;;;6.01;100.00;98090.44;4907693;29;20051;-94
2023/03/29 12:38:23;;;;;;;0.80;0.80;;;;;;;5.95;100.00;98061.94;4934132;28;20055;-90
2023/03/29 12:41:18;;;;;;;0.70;0.70;;;;;;;6.00;100.00;98080.81;4848704;29;20061;-89
2023/03/29 12:44:04;;;;;;;0.70;0.70;;;;;;;6.09;100.00;98081.22;4852825;29;20926;-90
2023/03/29 12:46:57;;;;;;;0.80;0.80;;;;;;;6.06;100.00;98074.47;4847157;29;20548;-92
2023/03/29 12:49:34;;;;;;;0.90;0.90;;;;;;;6.13;99.82;98097.63;4816340;29;20153;-90
2023/03/29 12:52:20;;;;;;;0.80;0.80;;;;;;;6.16;99.21;98078.41;4820300;29;20045;-92
2023/03/29 12:55:32;;;;;;;0.80;0.80;;;;;;;6.16;99.20;98067.69;4783767;30;20059;-96